createdAt,value
2018-04-23T00:01:33.965Z,15.98
2018-04-23T00:04:01.562Z,16.02
2018-04-23T00:06:29.144Z,16.03
2018-04-23T00:08:56.761Z,16.02
2018-04-23T00:11:24.400Z,15.89
2018-04-23T00:13:51.989Z,16.01
2018-04-23T00:16:19.583Z,15.94
2018-04-23T00:18:47.217Z,15.90
2018-04-23T00:21:14.826Z,15.99
2018-04-23T00:23:42.424Z,15.97
2018-04-23T00:26:10.043Z,15.96
2018-04-23T00:28:37.669Z,16.04
2018-04-23T00:31:05.273Z,15.87
2018-04-23T00:33:32.870Z,15.76
2018-04-23T00:36:00.532Z,15.67
2018-04-23T00:38:28.149Z,15.66
2018-04-23T00:40:55.734Z,15.42
2018-04-23T00:43:23.321Z,15.36
2018-04-23T00:45:50.912Z,15.28
2018-04-23T00:48:18.497Z,15.34
2018-04-23T00:50:46.084Z,15.16
2018-04-23T00:53:25.534Z,15.16
2018-04-23T00:55:53.163Z,15.36
2018-04-23T00:58:20.773Z,15.17
2018-04-23T01:00:48.354Z,14.97
2018-04-23T01:03:15.951Z,15.04
2018-04-23T01:05:43.593Z,15.22
2018-04-23T01:08:11.226Z,15.21
2018-04-23T01:10:38.844Z,14.93
2018-04-23T01:13:06.442Z,14.87
2018-04-23T01:15:34.109Z,14.82
2018-04-23T01:18:01.766Z,14.83
2018-04-23T01:20:29.353Z,14.92
2018-04-23T01:22:56.953Z,15.01
2018-04-23T01:25:24.539Z,15.06
2018-04-23T01:27:52.173Z,15.03
2018-04-23T01:30:19.789Z,14.96
2018-04-23T01:32:47.382Z,14.93
2018-04-23T01:35:15.109Z,14.73
2018-04-23T01:37:42.726Z,14.69
2018-04-23T01:40:10.319Z,14.70
2018-04-23T01:42:37.957Z,14.67
2018-04-23T01:45:05.537Z,14.79
2018-04-23T01:47:33.158Z,14.53
2018-04-23T01:50:00.786Z,14.72
2018-04-23T01:52:28.397Z,14.45
2018-04-23T01:54:55.986Z,14.57
2018-04-23T01:57:23.589Z,14.38
2018-04-23T01:59:51.194Z,14.42
2018-04-23T02:02:18.817Z,14.47
2018-04-23T02:04:46.409Z,14.25
2018-04-23T02:07:13.993Z,14.14
2018-04-23T02:09:41.658Z,14.05
2018-04-23T02:12:09.245Z,14.21
2018-04-23T02:14:36.882Z,14.28
2018-04-23T02:17:04.511Z,14.21
2018-04-23T02:19:32.113Z,14.15
2018-04-23T02:21:59.701Z,14.15
2018-04-23T02:24:27.321Z,14.33
2018-04-23T02:26:54.909Z,14.18
2018-04-23T02:29:22.498Z,14.22
2018-04-23T02:31:50.111Z,14.17
2018-04-23T02:34:17.725Z,14.28
2018-04-23T02:36:45.345Z,14.38
2018-04-23T02:39:12.961Z,14.14
2018-04-23T02:41:40.551Z,14.15
2018-04-23T02:44:08.157Z,13.94
2018-04-23T02:46:35.765Z,14.09
2018-04-23T02:49:03.405Z,14.17
2018-04-23T02:51:31.030Z,14.27
2018-04-23T02:53:58.654Z,14.10
2018-04-23T02:56:26.246Z,14.23
2018-04-23T02:58:53.888Z,13.92
2018-04-23T03:01:21.470Z,13.85
2018-04-23T03:03:49.049Z,13.86
2018-04-23T03:06:16.670Z,13.71
2018-04-23T03:08:44.270Z,13.73
2018-04-23T03:11:11.875Z,13.73
2018-04-23T03:13:39.518Z,13.67
2018-04-23T03:16:07.141Z,13.58
2018-04-23T03:18:34.765Z,13.61
2018-04-23T03:21:02.405Z,13.53
2018-04-23T03:23:30.022Z,13.56
2018-04-23T03:25:57.657Z,13.78
2018-04-23T03:28:25.278Z,13.85
2018-04-23T03:30:52.863Z,13.83
2018-04-23T03:33:20.473Z,13.75
2018-04-23T03:35:48.064Z,13.66
2018-04-23T03:38:15.685Z,13.58
2018-04-23T03:40:43.270Z,13.63
2018-04-23T03:43:10.949Z,13.62
2018-04-23T03:45:38.562Z,13.68
2018-04-23T03:48:06.170Z,13.69
2018-04-23T03:50:33.841Z,13.62
2018-04-23T03:53:01.403Z,13.78
2018-04-23T03:55:28.990Z,13.90
2018-04-23T03:57:56.609Z,13.99
2018-04-23T04:00:24.227Z,14.11
2018-04-23T04:02:51.837Z,14.03
2018-04-23T04:05:19.461Z,14.17
2018-04-23T04:07:47.173Z,14.12
2018-04-23T04:10:14.804Z,14.08
2018-04-23T04:12:54.074Z,14.19
2018-04-23T04:15:33.376Z,14.26
2018-04-23T04:21:09.281Z,14.38
2018-04-23T04:23:36.890Z,14.52
2018-04-23T04:26:04.484Z,14.61
2018-04-23T04:28:32.142Z,14.66
2018-04-23T04:30:59.790Z,14.77
2018-04-23T04:33:27.469Z,14.92
2018-04-23T04:35:55.069Z,14.91
2018-04-23T04:38:22.772Z,15.05
2018-04-23T04:40:50.402Z,15.10
2018-04-23T04:43:17.991Z,15.15
2018-04-23T04:45:45.626Z,15.23
2018-04-23T04:48:13.222Z,15.30
2018-04-23T04:50:40.814Z,15.38
2018-04-23T04:53:08.977Z,15.54
2018-04-23T04:55:36.593Z,15.75
2018-04-23T04:58:04.257Z,15.84
2018-04-23T05:00:31.882Z,15.87
2018-04-23T05:02:59.485Z,16.13
2018-04-23T05:05:27.294Z,16.30
2018-04-23T05:07:55.031Z,16.50
2018-04-23T05:10:22.685Z,16.50
2018-04-23T05:12:50.272Z,16.61
2018-04-23T05:15:17.923Z,16.72
2018-04-23T05:17:45.548Z,16.84
2018-04-23T05:20:13.207Z,16.90
2018-04-23T05:22:40.851Z,17.03
2018-04-23T05:25:08.529Z,17.14
2018-04-23T05:27:36.140Z,17.24
2018-04-23T05:30:03.807Z,17.55
2018-04-23T05:32:31.411Z,17.86
2018-04-23T05:34:59.018Z,18.09
2018-04-23T05:37:26.614Z,18.48
2018-04-23T05:39:54.248Z,18.80
2018-04-23T05:42:21.853Z,18.59
2018-04-23T05:44:49.457Z,19.21
2018-04-23T05:47:17.070Z,19.61
2018-04-23T05:49:44.674Z,20.19
2018-04-23T05:52:12.365Z,20.60
2018-04-23T05:54:39.963Z,20.23
2018-04-23T05:57:07.585Z,20.02
2018-04-23T05:59:35.221Z,20.73
2018-04-23T06:02:02.843Z,21.31
2018-04-23T06:04:30.485Z,21.20
2018-04-23T06:06:58.173Z,21.29
2018-04-23T06:09:25.762Z,20.97
2018-04-23T06:11:53.377Z,21.37
2018-04-23T06:14:20.995Z,21.49
2018-04-23T06:16:48.590Z,21.87
2018-04-23T06:19:16.214Z,21.75
2018-04-23T06:21:43.814Z,21.74
2018-04-23T06:24:11.409Z,21.65
2018-04-23T06:26:39.029Z,21.73
2018-04-23T06:29:06.629Z,21.90
2018-04-23T06:31:34.213Z,21.95
2018-04-23T06:34:01.945Z,22.16
2018-04-23T06:36:29.537Z,22.15
2018-04-23T06:38:57.165Z,22.59
2018-04-23T06:41:24.785Z,22.84
2018-04-23T06:43:52.402Z,23.33
2018-04-23T06:46:20.006Z,23.35
2018-04-23T06:48:47.625Z,23.71
2018-04-23T06:51:15.252Z,23.85
2018-04-23T06:53:42.848Z,23.96
2018-04-23T06:56:10.432Z,23.70
2018-04-23T06:58:38.010Z,24.01
2018-04-23T07:01:05.616Z,24.48
2018-04-23T07:03:35.036Z,24.73
2018-04-23T07:06:02.717Z,25.11
2018-04-23T07:08:30.305Z,25.52
2018-04-23T07:10:57.903Z,25.92
2018-04-23T07:13:25.565Z,25.49
2018-04-23T07:15:53.162Z,25.72
2018-04-23T07:18:20.749Z,26.11
2018-04-23T07:20:48.352Z,26.33
2018-04-23T07:23:16.001Z,26.43
2018-04-23T07:25:43.700Z,26.81
2018-04-23T07:28:11.296Z,26.88
2018-04-23T07:30:38.890Z,26.96
2018-04-23T07:33:06.507Z,27.32
2018-04-23T07:35:34.086Z,27.50
2018-04-23T07:38:01.669Z,27.27
2018-04-23T07:40:29.296Z,27.48
2018-04-23T07:42:56.882Z,27.82
2018-04-23T07:45:24.489Z,27.73
2018-04-23T07:47:52.124Z,27.81
2018-04-23T07:50:19.692Z,28.13
2018-04-23T07:52:47.368Z,28.85
2018-04-23T07:55:14.945Z,29.06
2018-04-23T07:57:42.525Z,29.28
2018-04-23T08:00:10.176Z,29.23
2018-04-23T08:02:37.771Z,29.00
2018-04-23T08:05:05.365Z,29.11
2018-04-23T08:07:32.982Z,29.54
2018-04-23T08:10:00.583Z,29.79
2018-04-23T08:12:28.181Z,30.07
2018-04-23T08:14:55.825Z,30.09
2018-04-23T08:17:23.437Z,29.78
2018-04-23T08:22:26.529Z,30.00
2018-04-23T08:24:54.131Z,30.47
2018-04-23T08:27:21.705Z,31.08
2018-04-23T08:29:49.297Z,30.87
2018-04-23T08:32:16.918Z,31.07
2018-04-23T08:34:44.501Z,31.34
2018-04-23T08:37:12.110Z,31.44
2018-04-23T08:39:39.722Z,31.96
2018-04-23T08:42:07.345Z,31.57
2018-04-23T08:44:34.948Z,31.62
2018-04-23T08:47:02.554Z,31.47
2018-04-23T08:49:30.180Z,31.32
2018-04-23T08:51:57.761Z,31.73
2018-04-23T08:54:25.346Z,32.05
2018-04-23T08:56:52.965Z,32.12
2018-04-23T08:59:20.565Z,32.61
2018-04-23T09:01:48.181Z,32.67
2018-04-23T09:04:15.787Z,32.80
2018-04-23T09:06:43.385Z,33.37
2018-04-23T09:09:10.989Z,33.75
2018-04-23T09:11:38.592Z,34.22
2018-04-23T09:14:06.213Z,33.86
2018-04-23T09:16:33.822Z,33.45
2018-04-23T09:19:01.429Z,33.35
2018-04-23T09:21:29.013Z,34.01
2018-04-23T09:23:56.633Z,33.66
2018-04-23T09:26:24.218Z,33.16
2018-04-23T09:28:51.806Z,33.59
2018-04-23T09:31:19.425Z,33.28
2018-04-23T09:33:47.018Z,33.77
2018-04-23T09:36:14.621Z,33.61
2018-04-23T09:38:42.216Z,34.19
2018-04-23T09:41:09.809Z,35.43
2018-04-23T09:43:37.401Z,36.05
2018-04-23T09:46:04.996Z,36.60
2018-04-23T09:48:32.581Z,35.67
2018-04-23T09:51:00.161Z,35.47
2018-04-23T09:53:27.762Z,35.86
2018-04-23T09:55:55.349Z,36.30
2018-04-23T09:58:22.974Z,37.31
2018-04-23T10:00:50.597Z,36.54
2018-04-23T10:03:18.320Z,37.23
2018-04-23T10:05:45.945Z,37.74
2018-04-23T10:08:13.549Z,37.27
2018-04-23T10:10:41.165Z,37.77
2018-04-23T10:13:08.761Z,37.15
2018-04-23T10:15:36.354Z,36.60
2018-04-23T10:18:03.943Z,37.89
2018-04-23T10:20:31.529Z,37.89
2018-04-23T10:22:59.129Z,38.67
2018-04-23T10:25:26.734Z,37.85
2018-04-23T10:27:54.338Z,38.49
2018-04-23T10:30:21.933Z,37.30
2018-04-23T10:32:49.549Z,38.95
2018-04-23T10:35:17.136Z,39.65
2018-04-23T10:37:44.720Z,37.83
2018-04-23T10:40:12.310Z,37.58
2018-04-23T10:42:39.961Z,37.22
2018-04-23T10:45:07.546Z,38.01
2018-04-23T10:47:35.155Z,38.83
2018-04-23T10:50:02.748Z,38.14
2018-04-23T10:52:30.341Z,38.95
2018-04-23T10:54:57.959Z,39.00
2018-04-23T10:57:25.576Z,38.55
2018-04-23T10:59:53.165Z,37.33
2018-04-23T11:02:20.761Z,38.40
2018-04-23T11:04:48.345Z,39.44
2018-04-23T11:07:15.966Z,39.67
2018-04-23T11:09:43.627Z,39.74
2018-04-23T11:12:11.224Z,39.36
2018-04-23T11:14:38.822Z,39.79
2018-04-23T11:17:06.507Z,38.88
2018-04-23T11:19:34.153Z,39.75
2018-04-23T11:22:01.737Z,39.83
2018-04-23T11:24:29.371Z,40.59
2018-04-23T11:26:56.955Z,40.36
2018-04-23T11:29:24.545Z,39.65
2018-04-23T11:31:52.209Z,40.57
2018-04-23T11:34:19.799Z,39.73
2018-04-23T11:36:47.388Z,40.03
2018-04-23T11:39:14.973Z,41.24
2018-04-23T11:41:42.561Z,40.45
2018-04-23T11:44:10.157Z,41.16
2018-04-23T11:46:37.741Z,39.91
2018-04-23T11:49:05.326Z,39.28
2018-04-23T11:51:32.905Z,37.97
2018-04-23T11:54:00.577Z,37.77
2018-04-23T11:56:28.157Z,38.16
2018-04-23T11:58:55.750Z,38.57
2018-04-23T12:01:23.377Z,37.79
2018-04-23T12:03:50.954Z,38.64
2018-04-23T12:06:18.537Z,36.95
2018-04-23T12:08:46.125Z,36.11
2018-04-23T12:11:13.701Z,36.78
2018-04-23T12:13:41.322Z,36.87
2018-04-23T12:16:08.943Z,36.81
2018-04-23T12:18:36.546Z,38.26
2018-04-23T12:21:04.173Z,37.24
2018-04-23T12:23:31.778Z,37.60
2018-04-23T12:25:59.364Z,38.08
2018-04-23T12:28:26.953Z,38.23
2018-04-23T12:30:54.529Z,38.24
2018-04-23T12:33:22.109Z,37.50
2018-04-23T12:35:49.705Z,38.21
2018-04-23T12:38:17.285Z,38.60
2018-04-23T12:40:44.865Z,38.68
2018-04-23T12:43:12.448Z,38.75
2018-04-23T12:45:40.048Z,38.25
2018-04-23T12:48:07.637Z,36.73
2018-04-23T12:50:35.213Z,36.68
2018-04-23T12:53:02.801Z,37.18
2018-04-23T12:55:30.394Z,37.20
2018-04-23T12:57:58.056Z,36.19
2018-04-23T13:00:25.645Z,36.76
2018-04-23T13:02:53.237Z,36.53
2018-04-23T13:05:20.862Z,37.13
2018-04-23T13:07:48.522Z,36.48
2018-04-23T13:10:16.138Z,36.29
2018-04-23T13:12:43.734Z,35.16
2018-04-23T13:15:11.317Z,35.20
2018-04-23T13:17:38.906Z,35.74
2018-04-23T13:20:06.635Z,35.42
2018-04-23T13:22:34.390Z,35.09
2018-04-23T13:25:02.075Z,35.40
2018-04-23T13:27:29.729Z,35.62
2018-04-23T13:29:57.445Z,34.31
2018-04-23T13:32:25.147Z,34.50
2018-04-23T13:34:52.874Z,34.49
2018-04-23T13:37:20.549Z,33.98
2018-04-23T13:39:48.157Z,33.64
2018-04-23T13:42:15.850Z,33.94
2018-04-23T13:44:43.453Z,33.22
2018-04-23T13:47:11.147Z,33.29
2018-04-23T13:49:38.778Z,33.20
2018-04-23T13:52:06.385Z,32.85
2018-04-23T13:54:33.970Z,32.49
2018-04-23T13:57:01.580Z,32.45
2018-04-23T13:59:29.225Z,32.49
2018-04-23T14:01:56.830Z,32.56
2018-04-23T14:04:24.445Z,32.18
2018-04-23T14:06:52.077Z,32.09
2018-04-23T14:09:19.686Z,32.18
2018-04-23T14:11:47.290Z,31.86
2018-04-23T14:14:14.887Z,31.58
2018-04-23T14:16:42.490Z,31.87
2018-04-23T14:19:10.113Z,31.75
2018-04-23T14:21:37.703Z,31.73
2018-04-23T14:24:05.359Z,31.68
2018-04-23T14:26:32.949Z,31.53
2018-04-23T14:29:00.611Z,31.62
2018-04-23T14:31:28.239Z,31.92
2018-04-23T14:33:55.899Z,31.92
2018-04-23T14:36:23.489Z,31.26
2018-04-23T14:38:51.078Z,31.35
2018-04-23T14:41:18.689Z,31.38
2018-04-23T14:43:46.353Z,31.43
2018-04-23T14:46:13.977Z,31.25
2018-04-23T14:48:41.566Z,31.14
2018-04-23T14:51:09.169Z,30.97
2018-04-23T14:53:36.771Z,31.08
2018-04-23T14:56:04.390Z,31.23
2018-04-23T14:58:32.008Z,31.23
2018-04-23T15:00:59.591Z,31.29
2018-04-23T15:03:27.173Z,31.27
2018-04-23T15:05:54.766Z,31.12
2018-04-23T15:08:22.375Z,31.07
2018-04-23T15:10:49.973Z,31.17
2018-04-23T15:13:17.577Z,30.96
2018-04-23T15:15:45.161Z,30.86
2018-04-23T15:18:12.742Z,30.95
2018-04-23T15:20:40.340Z,30.86
2018-04-23T15:23:07.930Z,30.85
2018-04-23T15:25:35.548Z,31.07
2018-04-23T15:28:03.149Z,31.42
2018-04-23T15:30:30.725Z,32.20
2018-04-23T15:32:58.409Z,32.63
2018-04-23T15:35:25.997Z,32.22
2018-04-23T15:37:53.610Z,31.44
2018-04-23T15:40:21.200Z,30.69
2018-04-23T15:42:48.786Z,30.39
2018-04-23T15:45:16.441Z,30.21
2018-04-23T15:47:44.037Z,29.92
2018-04-23T15:50:11.642Z,30.00
2018-04-23T15:52:39.284Z,29.81
2018-04-23T15:55:06.868Z,29.83
2018-04-23T15:57:34.460Z,29.76
2018-04-23T16:00:02.075Z,29.64
2018-04-23T16:02:29.673Z,29.53
2018-04-23T16:04:57.257Z,29.50
2018-04-23T16:07:24.850Z,29.49
2018-04-23T16:09:52.457Z,29.49
2018-04-23T16:12:20.062Z,29.27
2018-04-23T16:14:47.757Z,29.16
2018-04-23T16:17:16.177Z,29.00
2018-04-23T16:19:43.757Z,29.06
2018-04-23T16:22:11.362Z,28.95
2018-04-23T16:24:39.012Z,28.90
2018-04-23T16:27:06.589Z,28.75
2018-04-23T16:29:34.170Z,28.76
2018-04-23T16:32:01.761Z,28.69
2018-04-23T16:34:29.349Z,28.75
2018-04-23T16:36:56.985Z,28.51
2018-04-23T16:39:24.685Z,28.44
2018-04-23T16:41:52.270Z,28.31
2018-04-23T16:44:19.869Z,28.21
2018-04-23T16:46:47.489Z,28.23
2018-04-23T16:49:15.117Z,28.08
2018-04-23T16:51:42.705Z,28.14
2018-04-23T16:54:10.374Z,28.15
2018-04-23T16:56:38.926Z,27.93
2018-04-23T16:59:06.505Z,27.84
2018-04-23T17:01:34.117Z,27.86
2018-04-23T17:04:01.707Z,27.82
2018-04-23T17:06:29.305Z,27.70
2018-04-23T17:08:56.965Z,27.56
2018-04-23T17:11:24.549Z,27.39
2018-04-23T17:13:52.150Z,27.35
2018-04-23T17:16:19.779Z,27.27
2018-04-23T17:18:47.373Z,27.09
2018-04-23T17:21:15.023Z,27.05
2018-04-23T17:23:42.620Z,26.96
2018-04-23T17:26:10.222Z,26.80
2018-04-23T17:28:37.856Z,26.80
2018-04-23T17:31:05.462Z,26.69
2018-04-23T17:33:33.204Z,26.69
2018-04-23T17:36:00.843Z,26.55
2018-04-23T17:38:28.488Z,26.56
2018-04-23T17:40:56.133Z,26.59
2018-04-23T17:43:23.727Z,26.54
2018-04-23T17:45:51.332Z,26.47
2018-04-23T17:48:18.917Z,26.30
2018-04-23T17:50:46.567Z,26.53
2018-04-23T17:53:14.819Z,26.39
2018-04-23T17:55:42.553Z,26.18
2018-04-23T17:58:10.175Z,26.27
2018-04-23T18:00:37.869Z,26.19
2018-04-23T18:03:05.458Z,26.06
2018-04-23T18:05:33.110Z,25.88
2018-04-23T18:08:00.693Z,25.88
2018-04-23T18:10:28.297Z,25.92
2018-04-23T18:12:55.973Z,25.91
2018-04-23T18:15:23.566Z,25.81
2018-04-23T18:17:51.150Z,25.75
2018-04-23T18:20:18.745Z,25.66
2018-04-23T18:22:46.349Z,25.61
2018-04-23T18:25:13.962Z,25.41
2018-04-23T18:27:41.567Z,25.27
2018-04-23T18:30:09.237Z,25.49
2018-04-23T18:32:36.825Z,25.37
2018-04-23T18:35:04.443Z,25.11
2018-04-23T18:37:32.038Z,24.98
2018-04-23T18:39:59.721Z,25.06
2018-04-23T18:42:27.305Z,25.14
2018-04-23T18:44:54.948Z,25.04
2018-04-23T18:47:22.597Z,25.10
2018-04-23T18:49:50.306Z,25.10
2018-04-23T18:52:17.925Z,24.92
2018-04-23T18:54:45.557Z,24.85
2018-04-23T18:57:13.147Z,24.88
2018-04-23T18:59:40.747Z,24.85
2018-04-23T19:02:08.387Z,24.92
2018-04-23T19:04:35.993Z,24.82
2018-04-23T19:07:04.113Z,24.69
2018-04-23T19:09:31.718Z,24.69
2018-04-23T19:11:59.306Z,24.55
2018-04-23T19:14:27.020Z,24.48
2018-04-23T19:16:54.622Z,24.62
2018-04-23T19:19:22.205Z,24.48
2018-04-23T19:21:49.884Z,24.39
2018-04-23T19:24:17.502Z,24.27
2018-04-23T19:26:45.100Z,24.13
2018-04-23T19:29:12.698Z,24.13
2018-04-23T19:31:40.323Z,24.08
2018-04-23T19:34:07.928Z,24.05
2018-04-23T19:36:35.529Z,24.05
2018-04-23T19:39:03.185Z,23.91
2018-04-23T19:41:30.773Z,23.87
2018-04-23T19:43:58.389Z,23.74
2018-04-23T19:46:26.009Z,23.75
2018-04-23T19:48:53.665Z,23.61
2018-04-23T19:51:21.382Z,23.51
2018-04-23T19:53:49.049Z,23.46
2018-04-23T19:56:16.638Z,23.40
2018-04-23T19:58:44.222Z,23.14
2018-04-23T20:01:11.855Z,23.08
2018-04-23T20:03:39.441Z,22.96
2018-04-23T20:06:07.071Z,22.96
2018-04-23T20:08:34.693Z,22.78
2018-04-23T20:11:02.319Z,22.76
2018-04-23T20:13:30.060Z,22.65
2018-04-23T20:15:57.685Z,22.56
2018-04-23T20:18:25.266Z,22.63
2018-04-23T20:20:52.884Z,22.38
2018-04-23T20:23:20.585Z,22.45
2018-04-23T20:25:48.139Z,22.37
2018-04-23T20:28:15.722Z,22.33
2018-04-23T20:30:43.366Z,22.29
2018-04-23T20:33:11.077Z,22.07
2018-04-23T20:35:38.674Z,22.21
2018-04-23T20:38:07.186Z,22.20
2018-04-23T20:40:34.863Z,22.15
2018-04-23T20:43:02.487Z,21.97
2018-04-23T20:45:30.117Z,21.65
2018-04-23T20:47:57.737Z,21.56
2018-04-23T20:50:25.333Z,21.51
2018-04-23T20:52:52.934Z,21.50
2018-04-23T20:55:20.605Z,21.47
2018-04-23T20:57:48.198Z,21.41
2018-04-23T21:00:15.786Z,21.36
2018-04-23T21:02:43.374Z,21.35
2018-04-23T21:05:10.969Z,21.38
2018-04-23T21:07:38.578Z,21.33
2018-04-23T21:10:06.212Z,21.14
2018-04-23T21:12:33.796Z,21.18
2018-04-23T21:15:01.394Z,20.96
2018-04-23T21:17:28.982Z,21.05
2018-04-23T21:19:56.570Z,20.90
2018-04-23T21:22:24.253Z,20.91
2018-04-23T21:24:51.882Z,21.06
2018-04-23T21:27:19.472Z,20.98
2018-04-23T21:29:47.057Z,21.05
2018-04-23T21:32:14.657Z,20.95
2018-04-23T21:34:42.281Z,20.93
2018-04-23T21:37:09.921Z,20.99
2018-04-23T21:39:37.530Z,20.90
2018-04-23T21:42:05.153Z,20.73
2018-04-23T21:44:32.781Z,20.72
2018-04-23T21:47:00.366Z,20.84
2018-04-23T21:49:27.970Z,20.67
2018-04-23T21:51:55.565Z,20.72
2018-04-23T21:54:23.157Z,20.65
2018-04-23T21:56:50.833Z,20.49
2018-04-23T21:59:18.425Z,20.64
2018-04-23T22:01:46.021Z,20.46
2018-04-23T22:04:13.629Z,20.52
2018-04-23T22:06:41.259Z,20.41
2018-04-23T22:09:08.865Z,20.48
2018-04-23T22:11:36.493Z,20.57
2018-04-23T22:14:04.227Z,20.50
2018-04-23T22:16:31.821Z,20.49
2018-04-23T22:18:59.478Z,20.61
2018-04-23T22:21:27.069Z,20.51
2018-04-23T22:23:54.661Z,20.57
2018-04-23T22:26:22.289Z,20.39
2018-04-23T22:28:49.889Z,20.42
2018-04-23T22:31:17.489Z,20.40
2018-04-23T22:33:45.109Z,20.25
2018-04-23T22:36:12.779Z,20.23
2018-04-23T22:38:40.401Z,20.18
2018-04-23T22:41:08.045Z,20.04
2018-04-23T22:43:35.658Z,20.11
2018-04-23T22:46:03.245Z,19.96
2018-04-23T22:48:30.853Z,19.85
2018-04-23T22:50:58.437Z,19.93
2018-04-23T22:53:26.017Z,19.92
2018-04-23T22:55:53.644Z,19.92
2018-04-23T22:58:21.257Z,19.85
2018-04-23T23:00:48.881Z,19.88
2018-04-23T23:03:16.557Z,19.81
2018-04-23T23:05:44.152Z,19.66
2018-04-23T23:08:11.745Z,19.46
2018-04-23T23:10:39.326Z,19.42
2018-04-23T23:13:06.913Z,19.50
2018-04-23T23:15:34.545Z,19.65
2018-04-23T23:18:02.147Z,19.64
2018-04-23T23:20:29.733Z,19.54
2018-04-23T23:22:57.353Z,19.35
2018-04-23T23:25:24.937Z,19.36
2018-04-23T23:27:52.525Z,19.35
2018-04-23T23:30:20.193Z,19.30
2018-04-23T23:32:47.789Z,19.21
2018-04-23T23:35:15.454Z,19.28
2018-04-23T23:37:43.116Z,19.20
2018-04-23T23:40:10.661Z,19.24
2018-04-23T23:42:38.265Z,19.29
2018-04-23T23:45:05.897Z,19.26
2018-04-23T23:47:33.540Z,19.19
2018-04-23T23:50:01.128Z,19.25
2018-04-23T23:52:28.756Z,19.16
2018-04-23T23:54:56.349Z,19.08
2018-04-23T23:57:23.969Z,19.14
2018-04-23T23:59:51.553Z,19.16
